createdAt,value
2018-04-08T00:00:14.165Z,99540.25
2018-04-08T00:02:41.560Z,99536.97
2018-04-08T00:05:08.943Z,99539.69
2018-04-08T00:07:36.325Z,99536.33
2018-04-08T00:10:03.716Z,99535.78
2018-04-08T00:12:31.096Z,99534.49
2018-04-08T00:14:58.488Z,99531.77
2018-04-08T00:17:25.871Z,99527.06
2018-04-08T00:19:53.256Z,99525.72
2018-04-08T00:22:20.644Z,99526.80
2018-04-08T00:24:48.036Z,99526.38
2018-04-08T00:27:15.415Z,99521.69
2018-04-08T00:29:42.860Z,99520.33
2018-04-08T00:32:10.244Z,99520.72
2018-04-08T00:34:37.632Z,99517.92
2018-04-08T00:37:05.077Z,99508.48
2018-04-08T00:39:32.464Z,99504.45
2018-04-08T00:41:59.876Z,99505.50
2018-04-08T00:44:27.261Z,99504.55
2018-04-08T00:46:54.632Z,99498.84
2018-04-08T00:49:22.108Z,99492.89
2018-04-08T00:51:49.496Z,99496.97
2018-04-08T00:54:28.784Z,99492.10
2018-04-08T00:56:56.169Z,99484.67
2018-04-08T00:59:23.557Z,99481.06
2018-04-08T01:01:51.674Z,99490.16
2018-04-08T01:04:19.067Z,99488.77
2018-04-08T01:06:46.459Z,99493.97
2018-04-08T01:09:13.976Z,99488.23
2018-04-08T01:11:41.360Z,99487.76
2018-04-08T01:14:08.749Z,99482.97
2018-04-08T01:16:36.136Z,99483.34
2018-04-08T01:19:03.520Z,99480.83
2018-04-08T01:21:30.916Z,99486.83
2018-04-08T01:23:58.296Z,99486.88
2018-04-08T01:26:25.695Z,99482.17
2018-04-08T01:28:53.077Z,99485.81
2018-04-08T01:31:20.468Z,99486.30
2018-04-08T01:33:47.843Z,99489.41
2018-04-08T01:36:15.234Z,99479.70
2018-04-08T01:38:42.628Z,99487.84
2018-04-08T01:41:10.005Z,99479.10
2018-04-08T01:43:37.408Z,99481.23
2018-04-08T01:46:04.785Z,99476.80
2018-04-08T01:48:32.180Z,99481.78
2018-04-08T01:50:59.561Z,99489.95
2018-04-08T01:53:26.952Z,99483.20
2018-04-08T01:55:54.336Z,99477.75
2018-04-08T01:58:21.725Z,99473.42
2018-04-08T02:00:49.104Z,99472.16
2018-04-08T02:03:16.601Z,99464.07
2018-04-08T02:05:43.991Z,99470.92
2018-04-08T02:08:11.372Z,99469.41
2018-04-08T02:10:38.764Z,99464.14
2018-04-08T02:13:06.140Z,99470.27
2018-04-08T02:15:33.528Z,99471.77
2018-04-08T02:18:00.920Z,99471.45
2018-04-08T02:20:28.329Z,99469.97
2018-04-08T02:22:55.708Z,99464.44
2018-04-08T02:25:23.100Z,99470.45
2018-04-08T02:27:50.488Z,99465.84
2018-04-08T02:30:17.874Z,99459.15
2018-04-08T02:32:45.264Z,99462.55
2018-04-08T02:35:12.648Z,99460.64
2018-04-08T02:37:40.038Z,99467.37
2018-04-08T02:40:07.432Z,99465.59
2018-04-08T02:42:34.812Z,99462.42
2018-04-08T02:45:02.205Z,99456.10
2018-04-08T02:47:29.594Z,99456.27
2018-04-08T02:49:56.981Z,99453.76
2018-04-08T02:52:24.369Z,99453.80
2018-04-08T02:54:51.751Z,99449.42
2018-04-08T02:57:19.136Z,99449.18
2018-04-08T02:59:46.524Z,99453.06
2018-04-08T03:02:13.945Z,99446.53
2018-04-08T03:04:41.346Z,99444.72
2018-04-08T03:07:08.720Z,99451.33
2018-04-08T03:09:36.106Z,99456.14
2018-04-08T03:12:03.489Z,99451.57
2018-04-08T03:14:31.016Z,99456.97
2018-04-08T03:16:58.401Z,99455.62
2018-04-08T03:19:25.861Z,99449.60
2018-04-08T03:21:53.252Z,99449.60
2018-04-08T03:24:20.636Z,99451.70
2018-04-08T03:26:48.040Z,99442.45
2018-04-08T03:29:15.419Z,99444.56
2018-04-08T03:31:43.168Z,99442.89
2018-04-08T03:34:10.548Z,99448.22
2018-04-08T03:36:37.936Z,99442.85
2018-04-08T03:39:06.221Z,99445.31
2018-04-08T03:41:33.611Z,99445.04
2018-04-08T03:44:00.999Z,99449.63
2018-04-08T03:46:28.388Z,99444.13
2018-04-08T03:48:56.112Z,99439.16
2018-04-08T03:51:23.491Z,99437.80
2018-04-08T03:53:50.884Z,99435.51
2018-04-08T03:56:18.268Z,99433.07
2018-04-08T03:58:45.656Z,99433.98
2018-04-08T04:01:13.036Z,99429.49
2018-04-08T04:03:40.421Z,99428.84
2018-04-08T04:06:07.805Z,99427.77
2018-04-08T04:08:35.196Z,99425.31
2018-04-08T04:11:02.592Z,99430.57
2018-04-08T04:13:29.976Z,99430.95
2018-04-08T04:15:57.360Z,99429.34
2018-04-08T04:18:36.560Z,99422.44
2018-04-08T04:21:15.841Z,99425.75
2018-04-08T04:23:55.011Z,99426.84
2018-04-08T04:26:31.148Z,99419.34
2018-04-08T04:28:58.536Z,99422.59
2018-04-08T04:31:25.927Z,99425.47
2018-04-08T04:33:53.308Z,99422.19
2018-04-08T04:36:20.700Z,99424.94
2018-04-08T04:38:48.081Z,99416.77
2018-04-08T04:41:15.479Z,99419.21
2018-04-08T04:43:42.856Z,99421.86
2018-04-08T04:46:10.248Z,99419.42
2018-04-08T04:48:37.637Z,99427.63
2018-04-08T04:51:05.023Z,99423.03
2018-04-08T04:53:32.537Z,99429.08
2018-04-08T04:55:59.920Z,99423.30
2018-04-08T04:58:27.312Z,99421.34
2018-04-08T05:00:54.773Z,99422.13
2018-04-08T05:03:22.164Z,99432.59
2018-04-08T05:05:49.549Z,99429.00
2018-04-08T05:08:16.996Z,99423.54
2018-04-08T05:10:44.448Z,99422.30
2018-04-08T05:13:11.832Z,99427.84
2018-04-08T05:15:39.212Z,99421.71
2018-04-08T05:18:06.601Z,99415.86
2018-04-08T05:20:39.702Z,99422.84
2018-04-08T05:23:07.090Z,99424.45
2018-04-08T05:25:34.482Z,99423.11
2018-04-08T05:28:01.865Z,99419.91
2018-04-08T05:30:29.261Z,99422.08
2018-04-08T05:32:56.646Z,99418.98
2018-04-08T05:35:24.041Z,99423.55
2018-04-08T05:37:51.429Z,99429.20
2018-04-08T05:40:18.854Z,99426.52
2018-04-08T05:42:46.305Z,99436.39
2018-04-08T05:45:13.755Z,99444.44
2018-04-08T05:47:41.152Z,99447.67
2018-04-08T05:50:08.536Z,99450.94
2018-04-08T05:52:35.944Z,99451.83
2018-04-08T05:55:03.320Z,99450.77
2018-04-08T05:57:30.704Z,99455.23
2018-04-08T05:59:58.108Z,99452.34
2018-04-08T06:02:25.504Z,99455.02
2018-04-08T06:04:52.884Z,99463.54
2018-04-08T06:07:20.276Z,99460.86
2018-04-08T06:09:47.685Z,99467.77
2018-04-08T06:12:15.112Z,99471.98
2018-04-08T06:14:42.497Z,99478.31
2018-04-08T06:17:09.912Z,99468.97
2018-04-08T06:19:37.301Z,99462.01
2018-04-08T06:22:04.689Z,99458.44
2018-04-08T06:24:32.081Z,99467.25
2018-04-08T06:26:59.461Z,99460.03
2018-04-08T06:29:26.906Z,99465.17
2018-04-08T06:31:54.292Z,99457.66
2018-04-08T06:34:21.700Z,99461.50
2018-04-08T06:36:49.088Z,99459.52
2018-04-08T06:39:16.473Z,99452.67
2018-04-08T06:41:43.861Z,99454.89
2018-04-08T06:44:11.240Z,99454.81
2018-04-08T06:46:38.650Z,99453.66
2018-04-08T06:49:06.032Z,99451.01
2018-04-08T06:51:33.422Z,99451.70
2018-04-08T06:54:00.811Z,99452.36
2018-04-08T06:56:28.272Z,99452.52
2018-04-08T06:58:55.649Z,99441.48
2018-04-08T07:01:23.079Z,99453.88
2018-04-08T07:03:50.452Z,99452.52
2018-04-08T07:06:17.836Z,99458.13
2018-04-08T07:08:45.227Z,99466.75
2018-04-08T07:11:12.612Z,99462.70
2018-04-08T07:13:40.001Z,99468.19
2018-04-08T07:16:07.466Z,99466.91
2018-04-08T07:18:34.878Z,99463.08
2018-04-08T07:21:02.237Z,99458.05
2018-04-08T07:23:29.665Z,99454.45
2018-04-08T07:25:57.012Z,99448.17
2018-04-08T07:28:24.410Z,99449.84
2018-04-08T07:30:51.793Z,99450.47
2018-04-08T07:33:19.173Z,99447.45
2018-04-08T07:35:46.573Z,99445.36
2018-04-08T07:38:13.949Z,99445.30
2018-04-08T07:40:41.351Z,99443.78
2018-04-08T07:43:08.735Z,99447.83
2018-04-08T07:45:36.124Z,99444.96
2018-04-08T07:48:03.511Z,99446.23
2018-04-08T07:50:30.909Z,99451.42
2018-04-08T07:52:58.288Z,99448.41
2018-04-08T07:55:25.668Z,99452.95
2018-04-08T07:57:53.061Z,99462.48
2018-04-08T08:00:20.456Z,99456.64
2018-04-08T08:02:47.840Z,99465.96
2018-04-08T08:05:15.228Z,99472.70
2018-04-08T08:07:42.616Z,99470.60
2018-04-08T08:10:09.997Z,99465.31
2018-04-08T08:12:37.392Z,99469.55
2018-04-08T08:15:04.776Z,99468.15
2018-04-08T08:17:32.164Z,99467.16
2018-04-08T08:19:59.552Z,99461.45
2018-04-08T08:22:26.956Z,99462.73
2018-04-08T08:24:54.349Z,99462.19
2018-04-08T08:27:21.732Z,99468.42
2018-04-08T08:29:49.130Z,99467.42
2018-04-08T08:32:16.540Z,99463.45
2018-04-08T08:34:44.034Z,99462.69
2018-04-08T08:37:11.440Z,99466.73
2018-04-08T08:39:39.129Z,99472.06
2018-04-08T08:42:06.516Z,99472.11
2018-04-08T08:44:33.896Z,99472.80
2018-04-08T08:47:01.311Z,99478.80
2018-04-08T08:49:28.688Z,99477.78
2018-04-08T08:51:56.080Z,99485.88
2018-04-08T08:54:23.476Z,99477.66
2018-04-08T08:56:50.862Z,99480.25
2018-04-08T08:59:18.252Z,99482.09
2018-04-08T09:01:45.642Z,99486.56
2018-04-08T09:04:13.034Z,99482.16
2018-04-08T09:06:40.494Z,99479.25
2018-04-08T09:09:07.974Z,99478.88
2018-04-08T09:11:35.347Z,99488.75
2018-04-08T09:14:02.744Z,99477.95
2018-04-08T09:16:30.122Z,99481.16
2018-04-08T09:19:00.013Z,99481.60
2018-04-08T09:21:32.919Z,99474.85
2018-04-08T09:24:02.825Z,99476.81
2018-04-08T09:26:30.220Z,99477.79
2018-04-08T09:28:57.617Z,99477.47
2018-04-08T09:31:24.989Z,99468.27
2018-04-08T09:33:52.406Z,99469.21
2018-04-08T09:36:19.868Z,99471.00
2018-04-08T09:38:47.216Z,99476.88
2018-04-08T09:41:14.848Z,99472.58
2018-04-08T09:43:42.269Z,99467.39
2018-04-08T09:46:10.933Z,99467.71
2018-04-08T09:48:38.354Z,99455.27
2018-04-08T09:51:05.785Z,99450.95
2018-04-08T09:53:33.169Z,99447.99
2018-04-08T09:56:00.833Z,99451.39
2018-04-08T09:58:38.923Z,99446.94
2018-04-08T10:01:26.969Z,99444.26
2018-04-08T10:03:54.348Z,99446.73
2018-04-08T10:06:21.749Z,99439.79
2018-04-08T10:08:49.141Z,99441.84
2018-04-08T10:11:16.922Z,99442.31
2018-04-08T10:13:44.309Z,99438.37
2018-04-08T10:16:11.696Z,99442.77
2018-04-08T10:18:39.092Z,99440.14
2018-04-08T10:21:06.484Z,99439.49
2018-04-08T10:23:33.880Z,99444.55
2018-04-08T10:26:01.280Z,99436.00
2018-04-08T10:28:28.714Z,99433.00
2018-04-08T10:30:56.136Z,99433.16
2018-04-08T10:33:23.847Z,99432.14
2018-04-08T10:35:51.221Z,99436.22
2018-04-08T10:38:18.676Z,99426.71
2018-04-08T10:40:46.040Z,99431.28
2018-04-08T10:43:13.503Z,99430.02
2018-04-08T10:45:40.892Z,99421.81
2018-04-08T10:48:08.297Z,99416.17
2018-04-08T10:50:38.443Z,99419.13
2018-04-08T10:53:05.829Z,99422.89
2018-04-08T10:55:33.241Z,99412.14
2018-04-08T10:58:00.623Z,99411.43
2018-04-08T11:00:28.012Z,99415.93
2018-04-08T11:02:55.453Z,99418.43
2018-04-08T11:05:22.856Z,99415.14
2018-04-08T11:07:50.253Z,99413.23
2018-04-08T11:10:17.649Z,99415.24
2018-04-08T11:12:45.049Z,99411.32
2018-04-08T11:15:12.438Z,99401.77
2018-04-08T11:17:39.824Z,99406.53
2018-04-08T11:20:07.204Z,99399.74
2018-04-08T11:22:34.619Z,99394.77
2018-04-08T11:25:01.981Z,99390.58
2018-04-08T11:27:29.388Z,99388.55
2018-04-08T11:29:56.756Z,99392.16
2018-04-08T11:32:24.140Z,99391.14
2018-04-08T11:34:51.528Z,99387.11
2018-04-08T11:37:18.917Z,99388.52
2018-04-08T11:39:46.309Z,99388.59
2018-04-08T11:42:13.688Z,99389.28
2018-04-08T11:44:41.073Z,99381.96
2018-04-08T11:47:08.465Z,99380.80
2018-04-08T11:49:35.840Z,99374.64
2018-04-08T11:52:03.251Z,99372.52
2018-04-08T11:54:30.669Z,99372.00
2018-04-08T11:56:58.061Z,99366.00
2018-04-08T11:59:25.448Z,99369.40
2018-04-08T12:01:52.833Z,99363.98
2018-04-08T12:04:20.216Z,99365.38
2018-04-08T12:06:47.604Z,99371.11
2018-04-08T12:09:14.997Z,99366.35
2018-04-08T12:11:42.380Z,99362.02
2018-04-08T12:14:09.776Z,99357.35
2018-04-08T12:16:37.165Z,99358.91
2018-04-08T12:19:04.544Z,99354.85
2018-04-08T12:21:31.935Z,99353.42
2018-04-08T12:23:59.323Z,99343.63
2018-04-08T12:26:29.525Z,99347.57
2018-04-08T12:28:56.900Z,99343.66
2018-04-08T12:31:24.331Z,99338.33
2018-04-08T12:33:51.677Z,99330.04
2018-04-08T12:36:19.061Z,99338.41
2018-04-08T12:38:46.456Z,99338.05
2018-04-08T12:41:13.837Z,99332.72
2018-04-08T12:43:41.233Z,99335.20
2018-04-08T12:46:08.835Z,99329.61
2018-04-08T12:48:36.217Z,99328.02
2018-04-08T12:51:03.609Z,99321.55
2018-04-08T12:53:30.996Z,99320.39
2018-04-08T12:55:58.380Z,99315.01
2018-04-08T12:58:25.761Z,99312.52
2018-04-08T13:00:53.156Z,99313.24
2018-04-08T13:03:20.540Z,99307.83
2018-04-08T13:05:47.924Z,99306.13
2018-04-08T13:08:15.317Z,99306.94
2018-04-08T13:10:42.705Z,99300.72
2018-04-08T13:13:10.092Z,99290.85
2018-04-08T13:15:37.476Z,99292.31
2018-04-08T13:18:04.868Z,99285.45
2018-04-08T13:20:32.255Z,99282.24
2018-04-08T13:22:59.640Z,99288.85
2018-04-08T13:25:28.504Z,99275.17
2018-04-08T13:27:55.888Z,99274.14
2018-04-08T13:30:23.285Z,99274.96
2018-04-08T13:32:50.668Z,99276.41
2018-04-08T13:35:18.056Z,99268.55
2018-04-08T13:37:45.440Z,99267.75
2018-04-08T13:40:12.825Z,99268.63
2018-04-08T13:42:40.228Z,99260.83
2018-04-08T13:45:07.613Z,99256.22
2018-04-08T13:47:35.025Z,99253.06
2018-04-08T13:50:02.412Z,99255.34
2018-04-08T13:52:29.800Z,99246.67
2018-04-08T13:54:57.194Z,99253.53
2018-04-08T13:57:24.581Z,99248.44
2018-04-08T13:59:52.384Z,99249.56
2018-04-08T14:02:19.770Z,99246.58
2018-04-08T14:04:47.300Z,99244.23
2018-04-08T14:07:14.693Z,99243.19
2018-04-08T14:09:42.083Z,99242.34
2018-04-08T14:12:09.501Z,99237.26
2018-04-08T14:14:36.884Z,99232.09
2018-04-08T14:17:04.268Z,99229.17
2018-04-08T14:19:31.664Z,99228.08
2018-04-08T14:21:59.048Z,99231.87
2018-04-08T14:24:26.473Z,99220.25
2018-04-08T14:26:53.852Z,99221.11
2018-04-08T14:29:21.244Z,99224.52
2018-04-08T14:31:48.636Z,99217.55
2018-04-08T14:34:16.017Z,99213.06
2018-04-08T14:36:43.416Z,99212.36
2018-04-08T14:39:10.792Z,99216.02
2018-04-08T14:41:38.175Z,99208.62
2018-04-08T14:44:05.572Z,99208.86
2018-04-08T14:46:33.010Z,99203.21
2018-04-08T14:49:00.360Z,99201.03
2018-04-08T14:51:27.745Z,99201.95
2018-04-08T14:53:55.140Z,99204.58
2018-04-08T14:56:22.673Z,99202.03
2018-04-08T14:58:50.061Z,99197.55
2018-04-08T15:01:17.454Z,99206.28
2018-04-08T15:03:44.833Z,99196.17
2018-04-08T15:06:12.224Z,99191.73
2018-04-08T15:08:39.610Z,99191.47
2018-04-08T15:11:06.992Z,99189.59
2018-04-08T15:13:34.394Z,99186.44
2018-04-08T15:16:01.769Z,99190.30
2018-04-08T15:18:29.186Z,99185.26
2018-04-08T15:20:56.566Z,99186.88
2018-04-08T15:23:23.957Z,99181.33
2018-04-08T15:25:51.345Z,99178.56
2018-04-08T15:28:18.724Z,99182.82
2018-04-08T15:30:46.132Z,99186.36
2018-04-08T15:33:13.524Z,99186.51
2018-04-08T15:35:40.908Z,99184.98
2018-04-08T15:38:08.296Z,99186.53
2018-04-08T15:40:35.679Z,99182.20
2018-04-08T15:43:03.091Z,99178.03
2018-04-08T15:45:30.476Z,99179.08
2018-04-08T15:47:57.861Z,99179.38
2018-04-08T15:50:25.576Z,99180.28
2018-04-08T15:52:52.964Z,99185.86
2018-04-08T15:55:20.363Z,99181.81
2018-04-08T15:57:47.740Z,99181.08
2018-04-08T16:00:15.132Z,99179.17
2018-04-08T16:02:42.528Z,99182.32
2018-04-08T16:05:09.915Z,99175.51
2018-04-08T16:07:37.307Z,99176.59
2018-04-08T16:10:04.692Z,99176.78
2018-04-08T16:12:32.073Z,99169.69
2018-04-08T16:14:59.471Z,99177.20
2018-04-08T16:17:26.853Z,99172.55
2018-04-08T16:19:54.309Z,99178.42
2018-04-08T16:22:21.709Z,99179.40
2018-04-08T16:24:49.086Z,99178.53
2018-04-08T16:27:16.469Z,99181.67
2018-04-08T16:29:43.852Z,99183.50
2018-04-08T16:32:11.257Z,99183.45
2018-04-08T16:34:38.646Z,99178.94
2018-04-08T16:37:06.032Z,99173.99
2018-04-08T16:39:33.435Z,99179.00
2018-04-08T16:42:00.988Z,99177.91
2018-04-08T16:44:28.383Z,99181.78
2018-04-08T16:46:55.761Z,99181.78
2018-04-08T16:49:23.155Z,99186.47
2018-04-08T16:51:50.547Z,99181.38
2018-04-08T16:54:17.925Z,99181.69
2018-04-08T16:56:45.336Z,99184.45
2018-04-08T16:59:12.772Z,99182.30
2018-04-08T17:01:40.120Z,99179.61
2018-04-08T17:04:07.507Z,99188.59
2018-04-08T17:06:34.898Z,99183.40
2018-04-08T17:09:02.305Z,99189.16
2018-04-08T17:11:29.692Z,99189.45
2018-04-08T17:13:57.121Z,99189.89
2018-04-08T17:16:24.528Z,99187.31
2018-04-08T17:18:51.918Z,99193.96
2018-04-08T17:21:20.285Z,99187.69
2018-04-08T17:23:47.672Z,99194.52
2018-04-08T17:26:15.061Z,99196.16
2018-04-08T17:28:42.968Z,99198.78
2018-04-08T17:31:10.347Z,99193.18
2018-04-08T17:33:38.005Z,99193.39
2018-04-08T17:36:05.398Z,99196.21
2018-04-08T17:38:32.914Z,99197.54
2018-04-08T17:41:00.300Z,99191.49
2018-04-08T17:43:27.777Z,99204.48
2018-04-08T17:45:55.158Z,99200.05
2018-04-08T17:48:22.544Z,99205.59
2018-04-08T17:50:50.269Z,99207.38
2018-04-08T17:53:17.657Z,99207.80
2018-04-08T17:55:45.042Z,99209.30
2018-04-08T17:58:12.453Z,99209.71
2018-04-08T18:00:39.866Z,99214.41
2018-04-08T18:03:07.245Z,99214.70
2018-04-08T18:05:34.649Z,99212.45
2018-04-08T18:08:02.198Z,99214.37
2018-04-08T18:10:29.655Z,99211.62
2018-04-08T18:12:57.039Z,99214.47
2018-04-08T18:15:24.434Z,99212.54
2018-04-08T18:17:51.819Z,99215.47
2018-04-08T18:20:19.365Z,99212.73
2018-04-08T18:22:46.756Z,99213.25
2018-04-08T18:25:14.138Z,99212.47
2018-04-08T18:27:41.541Z,99211.75
2018-04-08T18:30:08.921Z,99215.67
2018-04-08T18:32:36.471Z,99216.27
2018-04-08T18:35:03.968Z,99219.98
2018-04-08T18:37:31.386Z,99226.41
2018-04-08T18:39:58.805Z,99225.70
2018-04-08T18:42:26.204Z,99225.52
2018-04-08T18:44:53.598Z,99230.28
2018-04-08T18:47:21.005Z,99229.84
2018-04-08T18:49:48.404Z,99231.83
2018-04-08T18:52:15.784Z,99238.08
2018-04-08T18:54:43.178Z,99235.78
2018-04-08T18:57:10.564Z,99239.56
2018-04-08T18:59:38.026Z,99243.42
2018-04-08T19:02:05.411Z,99244.98
2018-04-08T19:04:32.812Z,99245.73
2018-04-08T19:07:00.202Z,99250.00
2018-04-08T19:09:27.587Z,99244.89
2018-04-08T19:11:55.326Z,99252.65
2018-04-08T19:14:22.721Z,99245.73
2018-04-08T19:16:50.116Z,99244.83
2018-04-08T19:19:17.500Z,99251.00
2018-04-08T19:21:44.893Z,99250.84
2018-04-08T19:24:12.282Z,99251.53
2018-04-08T19:26:39.660Z,99249.27
2018-04-08T19:29:07.042Z,99250.93
2018-04-08T19:31:34.428Z,99246.55
2018-04-08T19:34:01.819Z,99254.42
2018-04-08T19:36:29.211Z,99254.66
2018-04-08T19:38:56.628Z,99257.38
2018-04-08T19:41:24.048Z,99255.91
2018-04-08T19:43:51.434Z,99251.69
2018-04-08T19:46:18.821Z,99262.05
2018-04-08T19:48:46.222Z,99259.89
2018-04-08T19:51:13.977Z,99259.88
2018-04-08T19:53:41.361Z,99258.88
2018-04-08T19:56:08.817Z,99253.45
2018-04-08T19:58:36.283Z,99254.37
2018-04-08T20:01:03.641Z,99258.03
2018-04-08T20:03:31.021Z,99253.82
2018-04-08T20:05:58.406Z,99252.66
2018-04-08T20:08:25.796Z,99252.22
2018-04-08T20:10:53.181Z,99253.13
2018-04-08T20:13:20.577Z,99254.58
2018-04-08T20:15:47.957Z,99249.02
2018-04-08T20:18:15.340Z,99249.17
2018-04-08T20:20:42.732Z,99249.43
2018-04-08T20:23:10.122Z,99247.13
2018-04-08T20:25:37.512Z,99245.09
2018-04-08T20:28:04.893Z,99242.89
2018-04-08T20:30:32.280Z,99239.44
2018-04-08T20:32:59.719Z,99245.53
2018-04-08T20:35:27.060Z,99243.59
2018-04-08T20:37:54.471Z,99232.42
2018-04-08T20:40:21.910Z,99239.16
2018-04-08T20:42:49.244Z,99233.17
2018-04-08T20:45:16.635Z,99231.34
2018-04-08T20:47:44.019Z,99234.62
2018-04-08T20:50:11.411Z,99233.73
2018-04-08T20:52:38.796Z,99234.53
2018-04-08T20:55:06.185Z,99231.37
2018-04-08T20:57:33.572Z,99227.06
2018-04-08T21:00:00.952Z,99223.02
2018-04-08T21:02:28.342Z,99224.03
2018-04-08T21:04:55.724Z,99222.61
2018-04-08T21:07:23.130Z,99223.23
2018-04-08T21:09:50.523Z,99224.95
2018-04-08T21:12:17.908Z,99228.52
2018-04-08T21:14:45.300Z,99231.61
2018-04-08T21:17:12.684Z,99231.64
2018-04-08T21:19:40.077Z,99230.24
2018-04-08T21:22:07.466Z,99234.20
2018-04-08T21:24:34.886Z,99231.25
2018-04-08T21:27:02.266Z,99234.03
2018-04-08T21:29:29.662Z,99232.88
2018-04-08T21:31:57.061Z,99232.77
2018-04-08T21:34:24.444Z,99235.31
2018-04-08T21:36:51.836Z,99233.86
2018-04-08T21:39:19.240Z,99225.77
2018-04-08T21:41:46.640Z,99224.26
2018-04-08T21:44:14.029Z,99228.33
2018-04-08T21:46:41.411Z,99231.73
2018-04-08T21:49:08.795Z,99233.08
2018-04-08T21:51:36.589Z,99234.85
2018-04-08T21:54:03.968Z,99237.61
2018-04-08T21:56:31.368Z,99227.11
2018-04-08T21:58:58.752Z,99223.61
2018-04-08T22:01:26.201Z,99220.69
2018-04-08T22:03:53.592Z,99218.38
2018-04-08T22:06:21.015Z,99216.97
2018-04-08T22:08:48.384Z,99217.29
2018-04-08T22:11:15.776Z,99216.87
2018-04-08T22:13:43.157Z,99219.35
2018-04-08T22:16:10.578Z,99219.05
2018-04-08T22:18:37.956Z,99220.51
2018-04-08T22:21:05.364Z,99225.53
2018-04-08T22:23:32.769Z,99219.36
2018-04-08T22:26:00.152Z,99226.09
2018-04-08T22:28:27.553Z,99229.27
2018-04-08T22:30:54.941Z,99227.39
2018-04-08T22:33:22.341Z,99228.59
2018-04-08T22:35:49.744Z,99232.73
2018-04-08T22:38:17.128Z,99228.84
2018-04-08T22:40:44.553Z,99232.42
2018-04-08T22:43:11.941Z,99226.92
2018-04-08T22:45:39.357Z,99228.06
2018-04-08T22:48:06.791Z,99232.81
2018-04-08T22:50:34.136Z,99235.41
2018-04-08T22:53:01.529Z,99236.41
2018-04-08T22:55:28.912Z,99236.15
2018-04-08T22:57:56.304Z,99236.15
2018-04-08T23:00:25.600Z,99238.28
2018-04-08T23:02:52.980Z,99235.51
2018-04-08T23:05:20.368Z,99234.95
2018-04-08T23:07:47.764Z,99237.00
2018-04-08T23:10:15.164Z,99234.60
2018-04-08T23:12:42.556Z,99236.09
2018-04-08T23:15:09.948Z,99237.73
2018-04-08T23:17:37.533Z,99235.06
2018-04-08T23:20:04.929Z,99234.13
2018-04-08T23:22:32.330Z,99230.23
2018-04-08T23:24:59.728Z,99230.40
2018-04-08T23:27:27.125Z,99226.36
2018-04-08T23:29:54.533Z,99226.91
2018-04-08T23:32:21.916Z,99231.09
2018-04-08T23:34:49.311Z,99226.64
2018-04-08T23:37:16.701Z,99226.91
2018-04-08T23:39:44.168Z,99230.40
2018-04-08T23:42:11.560Z,99229.87
2018-04-08T23:44:38.945Z,99229.06
2018-04-08T23:47:06.344Z,99223.86
2018-04-08T23:49:33.740Z,99218.72
2018-04-08T23:52:01.130Z,99225.81
2018-04-08T23:54:28.536Z,99224.85
2018-04-08T23:56:55.926Z,99221.61
2018-04-08T23:59:23.338Z,99223.92
